Colerain, OH (43916)

12:28 PM EST on December 25, 2014 (GMT -0500)
Crawford Heights | Change Station
CLOSE
Current Station
Personal Weather Station
Location: Martins Ferry, OH
Elevation: 1109 ft
Nearby Weather Stations

Elev 1109 ft 40.09 °N, 80.75 °W | Updated 6 minutes ago

Overcast
Overcast
39.0 °F
Feels Like 31 °F
N
12.5
Wind Variable Wind from West

Today
High -- | Low -- °F
--% Chance of Precip.
Yesterday
High -- | Low -- °F
Precip. -- in
7:43 AM 5:03 PM
Waxing Crescent, 18% visible
Pressure 30.05 in
Visibility 10.0 miles
Clouds Mostly Cloudy 2800 ft
Overcast 3700 ft
Windchill 31 °F
Dew Point 32 °F
Humidity 77%
Rainfall 0.02 in
Snow Depth Not available.
UV 1 out of 12
Pollen .10 out of 12
Air Quality Not available.
Flu Activity Not available.
METAR KHLG 251653Z 26015G25KT 10SM BKN028 OVC037 03/M01 A3001 RMK AO2 PK WND 27029/1600 RAB18E30 SLP174 P0000 T00331011

More Conditions Fewer Conditions

Pressure 30.05 in
Visibility 10.0 miles
Clouds Mostly Cloudy 2800 ft
Overcast 3700 ft
Windchill 31 °F
Dew Point 32 °F
Humidity 77%
Rainfall 0.02 in
Snow Depth Not available.
UV 1 out of 12
Pollen .10 out of 12
Air Quality Not available.
Flu Activity Not available.
METAR KHLG 251653Z 26015G25KT 10SM BKN028 OVC037 03/M01 A3001 RMK AO2 PK WND 27029/1600 RAB18E30 SLP174 P0000 T00331011

More Conditions Fewer Conditions

10-Day Weather Forecast

Almanac

Astronomy

Dec. 25, 2014 Rise Set
Actual Time
Civil Twilight
Nautical Twilight
Astronomical Twilight
Moon
Length of Visible Light
Length of Day
Tomorrow will be .
, % of the Moon is Illuminated

Today's Extremes

State Highs State Lows

Community

WunderPhotos

Upload Photos

1,780,346 photos uploaded!

WunderBlogs® & News

Nearby

Air Quality

  Air Quality AQ Index Pollutant
Not available.

Snow Depth

Station Depth Elevation

Earthquake Activity

City Distance Mag. Time & Date
Minimum magnitude displayed is 2.5.

Coastal Water Temperatures

Place Temperature

Nearby Weather Stations